sensor_id;sensor_type;location;lat;lon;timestamp;P1;durP1;ratioP1;P2;durP2;ratioP2
68938;SDS011;59064;45.294;11.816;2023-08-08T00:01:03;5.00;;;2.30;;
68938;SDS011;59064;45.294;11.816;2023-08-08T00:03:28;5.30;;;2.30;;
68938;SDS011;59064;45.294;11.816;2023-08-08T00:05:54;6.50;;;2.50;;
68938;SDS011;59064;45.294;11.816;2023-08-08T00:08:20;5.80;;;2.40;;
68938;SDS011;59064;45.294;11.816;2023-08-08T00:10:45;5.70;;;2.20;;
68938;SDS011;59064;45.294;11.816;2023-08-08T00:13:11;4.60;;;2.20;;
68938;SDS011;59064;45.294;11.816;2023-08-08T00:15:36;5.00;;;2.10;;
68938;SDS011;59064;45.294;11.816;2023-08-08T00:18:02;4.60;;;2.40;;
68938;SDS011;59064;45.294;11.816;2023-08-08T00:20:28;5.40;;;2.50;;
68938;SDS011;59064;45.294;11.816;2023-08-08T00:22:54;4.50;;;2.10;;
68938;SDS011;59064;45.294;11.816;2023-08-08T00:25:19;4.70;;;1.90;;
68938;SDS011;59064;45.294;11.816;2023-08-08T00:27:45;4.80;;;2.40;;
68938;SDS011;59064;45.294;11.816;2023-08-08T00:30:11;4.30;;;2.40;;
68938;SDS011;59064;45.294;11.816;2023-08-08T00:32:40;4.60;;;2.50;;
68938;SDS011;59064;45.294;11.816;2023-08-08T00:35:06;4.90;;;2.50;;
68938;SDS011;59064;45.294;11.816;2023-08-08T00:37:32;4.80;;;2.10;;
68938;SDS011;59064;45.294;11.816;2023-08-08T00:39:58;4.90;;;2.30;;
68938;SDS011;59064;45.294;11.816;2023-08-08T00:42:23;4.80;;;2.50;;
68938;SDS011;59064;45.294;11.816;2023-08-08T00:44:49;6.20;;;2.30;;
68938;SDS011;59064;45.294;11.816;2023-08-08T00:47:14;5.40;;;2.80;;
68938;SDS011;59064;45.294;11.816;2023-08-08T00:49:40;5.10;;;2.00;;
68938;SDS011;59064;45.294;11.816;2023-08-08T00:52:09;5.20;;;2.40;;
68938;SDS011;59064;45.294;11.816;2023-08-08T00:54:34;5.70;;;2.40;;
68938;SDS011;59064;45.294;11.816;2023-08-08T00:57:00;6.30;;;2.50;;
68938;SDS011;59064;45.294;11.816;2023-08-08T00:59:26;5.00;;;2.40;;
68938;SDS011;59064;45.294;11.816;2023-08-08T01:01:52;5.70;;;2.80;;
68938;SDS011;59064;45.294;11.816;2023-08-08T01:04:19;5.00;;;2.50;;
68938;SDS011;59064;45.294;11.816;2023-08-08T01:06:54;6.50;;;2.40;;
68938;SDS011;59064;45.294;11.816;2023-08-08T01:09:32;7.20;;;2.80;;
68938;SDS011;59064;45.294;11.816;2023-08-08T01:12:02;4.40;;;2.50;;
68938;SDS011;59064;45.294;11.816;2023-08-08T01:14:30;4.50;;;2.40;;
68938;SDS011;59064;45.294;11.816;2023-08-08T01:16:58;4.00;;;1.80;;
68938;SDS011;59064;45.294;11.816;2023-08-08T01:19:29;5.50;;;2.40;;
68938;SDS011;59064;45.294;11.816;2023-08-08T01:21:59;4.40;;;2.50;;
68938;SDS011;59064;45.294;11.816;2023-08-08T01:24:32;4.90;;;2.10;;
68938;SDS011;59064;45.294;11.816;2023-08-08T01:27:03;5.30;;;2.60;;
68938;SDS011;59064;45.294;11.816;2023-08-08T01:29:31;5.50;;;2.60;;
68938;SDS011;59064;45.294;11.816;2023-08-08T01:31:56;4.90;;;2.50;;
68938;SDS011;59064;45.294;11.816;2023-08-08T01:34:22;5.20;;;2.50;;
68938;SDS011;59064;45.294;11.816;2023-08-08T01:37:23;4.20;;;2.20;;
68938;SDS011;59064;45.294;11.816;2023-08-08T01:39:57;6.40;;;2.40;;
68938;SDS011;59064;45.294;11.816;2023-08-08T01:42:26;4.00;;;2.20;;
68938;SDS011;59064;45.294;11.816;2023-08-08T01:44:53;4.20;;;2.10;;
68938;SDS011;59064;45.294;11.816;2023-08-08T01:47:20;4.60;;;1.90;;
68938;SDS011;59064;45.294;11.816;2023-08-08T01:49:46;5.80;;;2.10;;
68938;SDS011;59064;45.294;11.816;2023-08-08T01:52:11;4.90;;;2.10;;
68938;SDS011;59064;45.294;11.816;2023-08-08T01:54:37;4.00;;;1.90;;
68938;SDS011;59064;45.294;11.816;2023-08-08T01:57:03;4.20;;;1.90;;
68938;SDS011;59064;45.294;11.816;2023-08-08T01:59:29;4.80;;;2.00;;
68938;SDS011;59064;45.294;11.816;2023-08-08T02:01:55;4.40;;;2.30;;
68938;SDS011;59064;45.294;11.816;2023-08-08T02:04:20;4.70;;;2.30;;
68938;SDS011;59064;45.294;11.816;2023-08-08T02:06:46;5.90;;;2.10;;
68938;SDS011;59064;45.294;11.816;2023-08-08T02:09:15;4.20;;;1.80;;
68938;SDS011;59064;45.294;11.816;2023-08-08T02:11:41;4.50;;;1.90;;
68938;SDS011;59064;45.294;11.816;2023-08-08T02:14:07;4.80;;;1.90;;
68938;SDS011;59064;45.294;11.816;2023-08-08T02:16:32;4.30;;;1.80;;
68938;SDS011;59064;45.294;11.816;2023-08-08T02:19:00;6.90;;;2.30;;
68938;SDS011;59064;45.294;11.816;2023-08-08T02:21:26;3.80;;;1.80;;
68938;SDS011;59064;45.294;11.816;2023-08-08T02:23:52;4.10;;;1.70;;
68938;SDS011;59064;45.294;11.816;2023-08-08T02:26:17;3.70;;;1.50;;
68938;SDS011;59064;45.294;11.816;2023-08-08T02:28:43;4.60;;;2.00;;
68938;SDS011;59064;45.294;11.816;2023-08-08T02:31:10;3.10;;;1.30;;
68938;SDS011;59064;45.294;11.816;2023-08-08T02:33:36;3.30;;;1.40;;
68938;SDS011;59064;45.294;11.816;2023-08-08T02:36:01;3.50;;;1.50;;
68938;SDS011;59064;45.294;11.816;2023-08-08T02:38:28;3.20;;;1.40;;
68938;SDS011;59064;45.294;11.816;2023-08-08T02:40:53;3.70;;;1.20;;
68938;SDS011;59064;45.294;11.816;2023-08-08T02:43:19;3.20;;;1.40;;
68938;SDS011;59064;45.294;11.816;2023-08-08T02:45:44;3.60;;;1.40;;
68938;SDS011;59064;45.294;11.816;2023-08-08T02:48:10;2.80;;;1.20;;
68938;SDS011;59064;45.294;11.816;2023-08-08T02:50:35;3.50;;;1.40;;
68938;SDS011;59064;45.294;11.816;2023-08-08T02:53:01;3.00;;;1.40;;
68938;SDS011;59064;45.294;11.816;2023-08-08T02:55:26;3.30;;;1.40;;
68938;SDS011;59064;45.294;11.816;2023-08-08T02:57:52;3.10;;;1.10;;
68938;SDS011;59064;45.294;11.816;2023-08-08T03:00:17;6.00;;;1.40;;
68938;SDS011;59064;45.294;11.816;2023-08-08T03:02:43;3.10;;;1.40;;
68938;SDS011;59064;45.294;11.816;2023-08-08T03:05:08;4.00;;;1.20;;
68938;SDS011;59064;45.294;11.816;2023-08-08T03:07:34;3.50;;;1.50;;
68938;SDS011;59064;45.294;11.816;2023-08-08T03:10:00;4.60;;;1.20;;
68938;SDS011;59064;45.294;11.816;2023-08-08T03:12:28;2.80;;;1.30;;
68938;SDS011;59064;45.294;11.816;2023-08-08T03:14:53;3.60;;;1.30;;
68938;SDS011;59064;45.294;11.816;2023-08-08T03:17:19;3.50;;;1.40;;
68938;SDS011;59064;45.294;11.816;2023-08-08T03:19:44;3.70;;;1.20;;
68938;SDS011;59064;45.294;11.816;2023-08-08T03:22:10;4.10;;;1.40;;
68938;SDS011;59064;45.294;11.816;2023-08-08T03:24:36;3.70;;;1.20;;
68938;SDS011;59064;45.294;11.816;2023-08-08T03:27:01;3.20;;;1.40;;
68938;SDS011;59064;45.294;11.816;2023-08-08T03:29:27;4.00;;;1.20;;
68938;SDS011;59064;45.294;11.816;2023-08-08T03:31:52;3.40;;;1.10;;
68938;SDS011;59064;45.294;11.816;2023-08-08T03:34:18;5.30;;;1.40;;
68938;SDS011;59064;45.294;11.816;2023-08-08T03:36:43;3.80;;;1.20;;
68938;SDS011;59064;45.294;11.816;2023-08-08T03:39:10;3.20;;;1.40;;
68938;SDS011;59064;45.294;11.816;2023-08-08T03:41:36;2.90;;;1.10;;
68938;SDS011;59064;45.294;11.816;2023-08-08T03:44:02;3.00;;;1.30;;
68938;SDS011;59064;45.294;11.816;2023-08-08T03:46:28;2.70;;;1.20;;
68938;SDS011;59064;45.294;11.816;2023-08-08T03:48:53;3.10;;;1.10;;
68938;SDS011;59064;45.294;11.816;2023-08-08T03:51:19;4.20;;;1.20;;
68938;SDS011;59064;45.294;11.816;2023-08-08T03:53:45;4.50;;;1.10;;
68938;SDS011;59064;45.294;11.816;2023-08-08T03:56:10;2.50;;;0.90;;
68938;SDS011;59064;45.294;11.816;2023-08-08T03:58:37;3.70;;;1.10;;
68938;SDS011;59064;45.294;11.816;2023-08-08T04:01:03;3.50;;;1.30;;
68938;SDS011;59064;45.294;11.816;2023-08-08T04:03:29;3.90;;;1.20;;
68938;SDS011;59064;45.294;11.816;2023-08-08T04:05:54;4.70;;;1.10;;
68938;SDS011;59064;45.294;11.816;2023-08-08T04:08:21;3.60;;;0.90;;
68938;SDS011;59064;45.294;11.816;2023-08-08T04:10:46;3.00;;;1.10;;
68938;SDS011;59064;45.294;11.816;2023-08-08T04:13:12;3.40;;;1.10;;
68938;SDS011;59064;45.294;11.816;2023-08-08T04:15:38;3.70;;;1.20;;
68938;SDS011;59064;45.294;11.816;2023-08-08T04:18:04;2.80;;;1.20;;
68938;SDS011;59064;45.294;11.816;2023-08-08T04:20:32;2.80;;;1.10;;
68938;SDS011;59064;45.294;11.816;2023-08-08T04:22:59;4.30;;;1.10;;
68938;SDS011;59064;45.294;11.816;2023-08-08T04:25:26;3.30;;;1.10;;
68938;SDS011;59064;45.294;11.816;2023-08-08T04:27:52;3.00;;;1.30;;
68938;SDS011;59064;45.294;11.816;2023-08-08T04:30:21;3.50;;;1.20;;
68938;SDS011;59064;45.294;11.816;2023-08-08T04:32:46;2.80;;;1.10;;
68938;SDS011;59064;45.294;11.816;2023-08-08T04:35:12;3.60;;;1.40;;
68938;SDS011;59064;45.294;11.816;2023-08-08T04:37:37;2.40;;;1.10;;
68938;SDS011;59064;45.294;11.816;2023-08-08T04:40:03;4.40;;;1.60;;
68938;SDS011;59064;45.294;11.816;2023-08-08T04:42:29;2.70;;;1.10;;
68938;SDS011;59064;45.294;11.816;2023-08-08T04:44:55;3.50;;;1.20;;
68938;SDS011;59064;45.294;11.816;2023-08-08T04:47:21;3.00;;;1.10;;
68938;SDS011;59064;45.294;11.816;2023-08-08T04:49:46;3.90;;;1.20;;
68938;SDS011;59064;45.294;11.816;2023-08-08T04:52:12;2.80;;;1.10;;
68938;SDS011;59064;45.294;11.816;2023-08-08T04:54:37;2.50;;;1.10;;
68938;SDS011;59064;45.294;11.816;2023-08-08T04:57:03;3.00;;;1.40;;
68938;SDS011;59064;45.294;11.816;2023-08-08T04:59:29;3.10;;;1.10;;
68938;SDS011;59064;45.294;11.816;2023-08-08T05:01:54;2.80;;;1.10;;
68938;SDS011;59064;45.294;11.816;2023-08-08T05:04:20;6.30;;;1.30;;
68938;SDS011;59064;45.294;11.816;2023-08-08T05:06:45;3.60;;;1.20;;
68938;SDS011;59064;45.294;11.816;2023-08-08T05:09:11;5.00;;;1.10;;
68938;SDS011;59064;45.294;11.816;2023-08-08T05:11:37;2.30;;;1.00;;
68938;SDS011;59064;45.294;11.816;2023-08-08T05:14:02;3.90;;;1.30;;
68938;SDS011;59064;45.294;11.816;2023-08-08T05:16:28;3.00;;;1.10;;
68938;SDS011;59064;45.294;11.816;2023-08-08T05:18:54;2.80;;;1.20;;
68938;SDS011;59064;45.294;11.816;2023-08-08T05:21:19;3.20;;;1.10;;
68938;SDS011;59064;45.294;11.816;2023-08-08T05:23:46;2.00;;;0.90;;
68938;SDS011;59064;45.294;11.816;2023-08-08T05:26:11;4.10;;;1.20;;
68938;SDS011;59064;45.294;11.816;2023-08-08T05:28:37;2.80;;;1.30;;
68938;SDS011;59064;45.294;11.816;2023-08-08T05:31:03;5.00;;;1.10;;
68938;SDS011;59064;45.294;11.816;2023-08-08T05:33:28;3.60;;;1.20;;
68938;SDS011;59064;45.294;11.816;2023-08-08T05:35:54;3.80;;;1.30;;
68938;SDS011;59064;45.294;11.816;2023-08-08T05:38:19;3.90;;;1.20;;
68938;SDS011;59064;45.294;11.816;2023-08-08T05:40:45;3.30;;;0.90;;
68938;SDS011;59064;45.294;11.816;2023-08-08T05:43:10;3.50;;;1.00;;
68938;SDS011;59064;45.294;11.816;2023-08-08T05:45:41;2.80;;;1.00;;
68938;SDS011;59064;45.294;11.816;2023-08-08T05:48:07;3.60;;;1.10;;
68938;SDS011;59064;45.294;11.816;2023-08-08T05:50:37;3.40;;;1.00;;
68938;SDS011;59064;45.294;11.816;2023-08-08T05:53:03;3.00;;;1.00;;
68938;SDS011;59064;45.294;11.816;2023-08-08T05:55:29;2.80;;;1.20;;
68938;SDS011;59064;45.294;11.816;2023-08-08T05:57:55;2.20;;;1.00;;
68938;SDS011;59064;45.294;11.816;2023-08-08T06:00:21;3.10;;;1.00;;
68938;SDS011;59064;45.294;11.816;2023-08-08T06:02:46;2.30;;;0.90;;
68938;SDS011;59064;45.294;11.816;2023-08-08T06:05:12;3.20;;;0.90;;
68938;SDS011;59064;45.294;11.816;2023-08-08T06:07:38;3.90;;;1.20;;
68938;SDS011;59064;45.294;11.816;2023-08-08T06:10:05;3.20;;;1.10;;
68938;SDS011;59064;45.294;11.816;2023-08-08T06:12:33;2.10;;;0.90;;
68938;SDS011;59064;45.294;11.816;2023-08-08T06:14:59;3.50;;;1.10;;
68938;SDS011;59064;45.294;11.816;2023-08-08T06:17:25;2.80;;;0.80;;
68938;SDS011;59064;45.294;11.816;2023-08-08T06:19:50;3.60;;;0.90;;
68938;SDS011;59064;45.294;11.816;2023-08-08T06:22:16;2.70;;;1.00;;
68938;SDS011;59064;45.294;11.816;2023-08-08T06:24:42;2.70;;;1.00;;
68938;SDS011;59064;45.294;11.816;2023-08-08T06:27:07;3.30;;;0.80;;
68938;SDS011;59064;45.294;11.816;2023-08-08T06:29:33;4.00;;;0.90;;
68938;SDS011;59064;45.294;11.816;2023-08-08T06:31:59;2.90;;;1.00;;
68938;SDS011;59064;45.294;11.816;2023-08-08T06:34:25;3.90;;;0.90;;
68938;SDS011;59064;45.294;11.816;2023-08-08T06:36:50;2.50;;;1.10;;
68938;SDS011;59064;45.294;11.816;2023-08-08T06:39:16;2.30;;;0.90;;
68938;SDS011;59064;45.294;11.816;2023-08-08T06:41:44;2.50;;;1.00;;
68938;SDS011;59064;45.294;11.816;2023-08-08T06:44:09;2.30;;;0.70;;
68938;SDS011;59064;45.294;11.816;2023-08-08T06:46:35;3.60;;;0.80;;
68938;SDS011;59064;45.294;11.816;2023-08-08T06:49:01;2.70;;;0.90;;
68938;SDS011;59064;45.294;11.816;2023-08-08T06:51:26;2.70;;;0.90;;
68938;SDS011;59064;45.294;11.816;2023-08-08T06:53:52;2.70;;;0.70;;
68938;SDS011;59064;45.294;11.816;2023-08-08T06:56:18;3.00;;;0.70;;
68938;SDS011;59064;45.294;11.816;2023-08-08T06:58:43;2.00;;;0.80;;
68938;SDS011;59064;45.294;11.816;2023-08-08T07:01:09;2.70;;;0.80;;
68938;SDS011;59064;45.294;11.816;2023-08-08T07:03:35;2.30;;;1.00;;
68938;SDS011;59064;45.294;11.816;2023-08-08T07:06:02;2.20;;;0.90;;
68938;SDS011;59064;45.294;11.816;2023-08-08T07:08:28;3.90;;;0.80;;
68938;SDS011;59064;45.294;11.816;2023-08-08T07:10:56;2.20;;;0.70;;
68938;SDS011;59064;45.294;11.816;2023-08-08T07:13:22;2.10;;;0.70;;
68938;SDS011;59064;45.294;11.816;2023-08-08T07:15:48;3.10;;;0.70;;
68938;SDS011;59064;45.294;11.816;2023-08-08T07:18:15;3.10;;;1.00;;
68938;SDS011;59064;45.294;11.816;2023-08-08T07:20:40;4.20;;;0.90;;
68938;SDS011;59064;45.294;11.816;2023-08-08T07:23:06;1.90;;;0.70;;
68938;SDS011;59064;45.294;11.816;2023-08-08T07:25:31;2.40;;;0.80;;
68938;SDS011;59064;45.294;11.816;2023-08-08T07:27:57;2.10;;;0.70;;
68938;SDS011;59064;45.294;11.816;2023-08-08T07:30:23;2.20;;;0.60;;
68938;SDS011;59064;45.294;11.816;2023-08-08T07:32:50;4.30;;;0.60;;
68938;SDS011;59064;45.294;11.816;2023-08-08T07:35:16;2.90;;;0.50;;
68938;SDS011;59064;45.294;11.816;2023-08-08T07:37:42;2.80;;;0.60;;
68938;SDS011;59064;45.294;11.816;2023-08-08T07:40:16;1.30;;;0.50;;
68938;SDS011;59064;45.294;11.816;2023-08-08T07:42:46;2.10;;;0.60;;
68938;SDS011;59064;45.294;11.816;2023-08-08T07:45:13;2.90;;;1.10;;
68938;SDS011;59064;45.294;11.816;2023-08-08T07:47:39;2.80;;;0.70;;
68938;SDS011;59064;45.294;11.816;2023-08-08T07:50:05;1.90;;;0.60;;
68938;SDS011;59064;45.294;11.816;2023-08-08T07:52:34;3.60;;;0.80;;
68938;SDS011;59064;45.294;11.816;2023-08-08T07:55:00;2.40;;;0.60;;
68938;SDS011;59064;45.294;11.816;2023-08-08T07:57:26;3.20;;;0.60;;
68938;SDS011;59064;45.294;11.816;2023-08-08T07:59:52;3.50;;;0.70;;
68938;SDS011;59064;45.294;11.816;2023-08-08T08:02:18;2.10;;;0.60;;
68938;SDS011;59064;45.294;11.816;2023-08-08T08:04:43;1.90;;;0.50;;
68938;SDS011;59064;45.294;11.816;2023-08-08T08:07:09;2.60;;;0.70;;
68938;SDS011;59064;45.294;11.816;2023-08-08T08:09:34;2.30;;;0.60;;
68938;SDS011;59064;45.294;11.816;2023-08-08T08:12:00;1.70;;;0.50;;
68938;SDS011;59064;45.294;11.816;2023-08-08T08:14:25;4.40;;;0.60;;
68938;SDS011;59064;45.294;11.816;2023-08-08T08:16:51;2.70;;;0.50;;
68938;SDS011;59064;45.294;11.816;2023-08-08T08:19:17;1.60;;;0.50;;
68938;SDS011;59064;45.294;11.816;2023-08-08T08:21:42;2.10;;;0.60;;
68938;SDS011;59064;45.294;11.816;2023-08-08T08:24:08;2.50;;;0.60;;
68938;SDS011;59064;45.294;11.816;2023-08-08T08:26:34;3.20;;;0.60;;
68938;SDS011;59064;45.294;11.816;2023-08-08T08:28:59;3.50;;;0.70;;
68938;SDS011;59064;45.294;11.816;2023-08-08T08:31:25;3.50;;;0.80;;
68938;SDS011;59064;45.294;11.816;2023-08-08T08:33:50;2.50;;;0.60;;
68938;SDS011;59064;45.294;11.816;2023-08-08T08:36:16;2.10;;;0.50;;
68938;SDS011;59064;45.294;11.816;2023-08-08T08:38:42;2.20;;;0.60;;
68938;SDS011;59064;45.294;11.816;2023-08-08T08:41:08;2.40;;;0.70;;
68938;SDS011;59064;45.294;11.816;2023-08-08T08:43:37;5.30;;;1.10;;
68938;SDS011;59064;45.294;11.816;2023-08-08T08:46:03;3.40;;;0.50;;
68938;SDS011;59064;45.294;11.816;2023-08-08T08:48:29;1.30;;;0.50;;
68938;SDS011;59064;45.294;11.816;2023-08-08T08:50:56;2.80;;;0.60;;
68938;SDS011;59064;45.294;11.816;2023-08-08T08:53:23;1.60;;;0.40;;
68938;SDS011;59064;45.294;11.816;2023-08-08T08:55:48;2.40;;;0.60;;
68938;SDS011;59064;45.294;11.816;2023-08-08T08:58:17;1.70;;;0.50;;
68938;SDS011;59064;45.294;11.816;2023-08-08T09:00:44;2.50;;;0.60;;
68938;SDS011;59064;45.294;11.816;2023-08-08T09:03:10;2.60;;;0.40;;
68938;SDS011;59064;45.294;11.816;2023-08-08T09:05:36;1.40;;;0.60;;
68938;SDS011;59064;45.294;11.816;2023-08-08T09:08:06;1.80;;;0.60;;
68938;SDS011;59064;45.294;11.816;2023-08-08T09:10:33;2.70;;;0.70;;
68938;SDS011;59064;45.294;11.816;2023-08-08T09:13:00;2.20;;;0.60;;
68938;SDS011;59064;45.294;11.816;2023-08-08T09:15:32;2.70;;;0.70;;
68938;SDS011;59064;45.294;11.816;2023-08-08T09:17:59;3.50;;;0.70;;
68938;SDS011;59064;45.294;11.816;2023-08-08T09:20:26;2.90;;;0.60;;
68938;SDS011;59064;45.294;11.816;2023-08-08T09:22:56;2.60;;;0.70;;
68938;SDS011;59064;45.294;11.816;2023-08-08T09:25:22;1.70;;;0.50;;
68938;SDS011;59064;45.294;11.816;2023-08-08T09:27:51;2.10;;;0.70;;
68938;SDS011;59064;45.294;11.816;2023-08-08T09:30:18;2.20;;;0.80;;
68938;SDS011;59064;45.294;11.816;2023-08-08T09:32:44;1.60;;;0.70;;
68938;SDS011;59064;45.294;11.816;2023-08-08T09:35:10;2.40;;;0.60;;
68938;SDS011;59064;45.294;11.816;2023-08-08T09:37:36;2.50;;;0.70;;
68938;SDS011;59064;45.294;11.816;2023-08-08T09:40:04;2.20;;;0.60;;
68938;SDS011;59064;45.294;11.816;2023-08-08T09:42:33;2.60;;;0.80;;
68938;SDS011;59064;45.294;11.816;2023-08-08T09:45:00;2.90;;;0.80;;
68938;SDS011;59064;45.294;11.816;2023-08-08T09:47:26;1.70;;;0.60;;
68938;SDS011;59064;45.294;11.816;2023-08-08T09:49:59;2.10;;;0.80;;
68938;SDS011;59064;45.294;11.816;2023-08-08T09:52:27;2.00;;;0.50;;
68938;SDS011;59064;45.294;11.816;2023-08-08T09:54:54;1.60;;;0.50;;
68938;SDS011;59064;45.294;11.816;2023-08-08T09:57:22;3.10;;;0.90;;
68938;SDS011;59064;45.294;11.816;2023-08-08T09:59:48;1.30;;;0.50;;
68938;SDS011;59064;45.294;11.816;2023-08-08T10:02:15;3.40;;;0.60;;
68938;SDS011;59064;45.294;11.816;2023-08-08T10:04:41;2.00;;;0.70;;
68938;SDS011;59064;45.294;11.816;2023-08-08T10:07:08;3.70;;;0.70;;
68938;SDS011;59064;45.294;11.816;2023-08-08T10:09:33;3.20;;;0.70;;
68938;SDS011;59064;45.294;11.816;2023-08-08T10:11:59;3.50;;;0.70;;
68938;SDS011;59064;45.294;11.816;2023-08-08T10:14:30;1.90;;;0.50;;
68938;SDS011;59064;45.294;11.816;2023-08-08T10:16:56;2.10;;;0.70;;
68938;SDS011;59064;45.294;11.816;2023-08-08T10:19:23;2.20;;;0.70;;
68938;SDS011;59064;45.294;11.816;2023-08-08T10:21:58;3.40;;;0.40;;
68938;SDS011;59064;45.294;11.816;2023-08-08T10:24:25;1.80;;;0.60;;
68938;SDS011;59064;45.294;11.816;2023-08-08T10:26:57;3.00;;;0.70;;
68938;SDS011;59064;45.294;11.816;2023-08-08T10:29:26;1.50;;;0.50;;
68938;SDS011;59064;45.294;11.816;2023-08-08T10:31:58;2.70;;;0.60;;
68938;SDS011;59064;45.294;11.816;2023-08-08T10:34:42;2.30;;;0.70;;
68938;SDS011;59064;45.294;11.816;2023-08-08T10:37:18;2.00;;;0.60;;
68938;SDS011;59064;45.294;11.816;2023-08-08T10:40:00;2.00;;;0.60;;
68938;SDS011;59064;45.294;11.816;2023-08-08T10:42:31;1.90;;;0.50;;
68938;SDS011;59064;45.294;11.816;2023-08-08T10:44:59;2.00;;;0.50;;
68938;SDS011;59064;45.294;11.816;2023-08-08T10:47:26;3.30;;;0.70;;
68938;SDS011;59064;45.294;11.816;2023-08-08T10:50:12;4.20;;;0.60;;
68938;SDS011;59064;45.294;11.816;2023-08-08T10:55:25;2.60;;;0.60;;
68938;SDS011;59064;45.294;11.816;2023-08-08T11:00:39;2.80;;;0.70;;
68938;SDS011;59064;45.294;11.816;2023-08-08T11:03:06;3.30;;;0.80;;
68938;SDS011;59064;45.294;11.816;2023-08-08T11:05:33;3.00;;;0.60;;
68938;SDS011;59064;45.294;11.816;2023-08-08T11:08:00;1.80;;;0.60;;
68938;SDS011;59064;45.294;11.816;2023-08-08T11:10:27;1.70;;;0.50;;
68938;SDS011;59064;45.294;11.816;2023-08-08T11:12:58;1.80;;;0.50;;
68938;SDS011;59064;45.294;11.816;2023-08-08T11:15:25;2.10;;;0.60;;
68938;SDS011;59064;45.294;11.816;2023-08-08T11:17:54;2.10;;;0.60;;
68938;SDS011;59064;45.294;11.816;2023-08-08T11:20:21;2.00;;;0.60;;
68938;SDS011;59064;45.294;11.816;2023-08-08T11:22:55;2.40;;;0.70;;
68938;SDS011;59064;45.294;11.816;2023-08-08T11:25:22;2.10;;;0.70;;
68938;SDS011;59064;45.294;11.816;2023-08-08T11:27:52;2.10;;;0.50;;
68938;SDS011;59064;45.294;11.816;2023-08-08T11:30:19;2.70;;;0.70;;
68938;SDS011;59064;45.294;11.816;2023-08-08T11:32:47;3.40;;;0.80;;
68938;SDS011;59064;45.294;11.816;2023-08-08T11:35:18;2.00;;;0.50;;
68938;SDS011;59064;45.294;11.816;2023-08-08T11:37:46;1.90;;;0.50;;
68938;SDS011;59064;45.294;11.816;2023-08-08T11:40:14;2.20;;;0.80;;
68938;SDS011;59064;45.294;11.816;2023-08-08T11:42:40;2.80;;;0.60;;
68938;SDS011;59064;45.294;11.816;2023-08-08T11:45:11;3.20;;;0.90;;
68938;SDS011;59064;45.294;11.816;2023-08-08T11:47:40;2.20;;;0.50;;
68938;SDS011;59064;45.294;11.816;2023-08-08T11:50:07;2.80;;;0.50;;
68938;SDS011;59064;45.294;11.816;2023-08-08T11:52:38;1.60;;;0.60;;
68938;SDS011;59064;45.294;11.816;2023-08-08T11:55:07;2.60;;;0.50;;
68938;SDS011;59064;45.294;11.816;2023-08-08T11:57:36;1.60;;;0.60;;
68938;SDS011;59064;45.294;11.816;2023-08-08T12:00:07;2.60;;;0.50;;
68938;SDS011;59064;45.294;11.816;2023-08-08T12:02:34;2.00;;;0.60;;
68938;SDS011;59064;45.294;11.816;2023-08-08T12:05:05;1.20;;;0.50;;
68938;SDS011;59064;45.294;11.816;2023-08-08T12:07:51;2.80;;;0.50;;
68938;SDS011;59064;45.294;11.816;2023-08-08T12:10:23;1.70;;;0.50;;
68938;SDS011;59064;45.294;11.816;2023-08-08T12:12:55;1.50;;;0.50;;
68938;SDS011;59064;45.294;11.816;2023-08-08T12:15:34;2.20;;;0.60;;
68938;SDS011;59064;45.294;11.816;2023-08-08T12:18:04;3.50;;;0.60;;
68938;SDS011;59064;45.294;11.816;2023-08-08T12:20:30;3.10;;;0.70;;
68938;SDS011;59064;45.294;11.816;2023-08-08T12:22:57;3.30;;;0.70;;
68938;SDS011;59064;45.294;11.816;2023-08-08T12:25:23;1.90;;;0.40;;
68938;SDS011;59064;45.294;11.816;2023-08-08T12:27:49;1.30;;;0.40;;
68938;SDS011;59064;45.294;11.816;2023-08-08T12:30:15;1.80;;;0.50;;
68938;SDS011;59064;45.294;11.816;2023-08-08T12:32:41;2.40;;;0.60;;
68938;SDS011;59064;45.294;11.816;2023-08-08T12:35:06;2.60;;;0.70;;
68938;SDS011;59064;45.294;11.816;2023-08-08T12:37:33;2.40;;;0.60;;
68938;SDS011;59064;45.294;11.816;2023-08-08T12:39:58;3.20;;;0.70;;
68938;SDS011;59064;45.294;11.816;2023-08-08T12:42:24;2.70;;;0.60;;
68938;SDS011;59064;45.294;11.816;2023-08-08T12:44:50;2.80;;;0.50;;
68938;SDS011;59064;45.294;11.816;2023-08-08T12:47:18;1.80;;;0.50;;
68938;SDS011;59064;45.294;11.816;2023-08-08T12:49:45;1.30;;;0.40;;
68938;SDS011;59064;45.294;11.816;2023-08-08T12:52:11;1.80;;;0.40;;
68938;SDS011;59064;45.294;11.816;2023-08-08T12:54:37;2.40;;;0.60;;
68938;SDS011;59064;45.294;11.816;2023-08-08T12:57:03;1.80;;;0.60;;
68938;SDS011;59064;45.294;11.816;2023-08-08T12:59:29;2.10;;;0.40;;
68938;SDS011;59064;45.294;11.816;2023-08-08T13:01:55;1.60;;;0.40;;
68938;SDS011;59064;45.294;11.816;2023-08-08T13:04:20;2.60;;;0.50;;
68938;SDS011;59064;45.294;11.816;2023-08-08T13:06:49;1.70;;;0.60;;
68938;SDS011;59064;45.294;11.816;2023-08-08T13:09:15;3.20;;;0.50;;
68938;SDS011;59064;45.294;11.816;2023-08-08T13:11:41;3.80;;;0.70;;
68938;SDS011;59064;45.294;11.816;2023-08-08T13:14:07;1.90;;;0.50;;
68938;SDS011;59064;45.294;11.816;2023-08-08T13:16:33;1.20;;;0.50;;
68938;SDS011;59064;45.294;11.816;2023-08-08T13:18:58;4.00;;;0.70;;
68938;SDS011;59064;45.294;11.816;2023-08-08T13:21:24;4.30;;;0.60;;
68938;SDS011;59064;45.294;11.816;2023-08-08T13:23:49;1.40;;;0.40;;
68938;SDS011;59064;45.294;11.816;2023-08-08T13:26:15;1.60;;;0.50;;
68938;SDS011;59064;45.294;11.816;2023-08-08T13:28:41;2.20;;;0.60;;
68938;SDS011;59064;45.294;11.816;2023-08-08T13:31:08;1.40;;;0.60;;
68938;SDS011;59064;45.294;11.816;2023-08-08T13:33:34;1.70;;;0.40;;
68938;SDS011;59064;45.294;11.816;2023-08-08T13:36:00;1.40;;;0.60;;
68938;SDS011;59064;45.294;11.816;2023-08-08T13:38:26;2.00;;;0.50;;
68938;SDS011;59064;45.294;11.816;2023-08-08T13:40:51;3.90;;;0.60;;
68938;SDS011;59064;45.294;11.816;2023-08-08T13:43:18;1.70;;;0.60;;
68938;SDS011;59064;45.294;11.816;2023-08-08T13:45:44;3.90;;;0.70;;
68938;SDS011;59064;45.294;11.816;2023-08-08T13:48:09;3.00;;;0.50;;
68938;SDS011;59064;45.294;11.816;2023-08-08T13:50:35;2.70;;;0.50;;
68938;SDS011;59064;45.294;11.816;2023-08-08T13:53:01;1.40;;;0.50;;
68938;SDS011;59064;45.294;11.816;2023-08-08T13:55:26;2.70;;;0.60;;
68938;SDS011;59064;45.294;11.816;2023-08-08T13:57:52;1.80;;;0.50;;
68938;SDS011;59064;45.294;11.816;2023-08-08T14:00:20;1.90;;;0.60;;
68938;SDS011;59064;45.294;11.816;2023-08-08T14:02:47;2.80;;;0.70;;
68938;SDS011;59064;45.294;11.816;2023-08-08T14:05:12;1.40;;;0.40;;
68938;SDS011;59064;45.294;11.816;2023-08-08T14:07:39;3.60;;;0.50;;
68938;SDS011;59064;45.294;11.816;2023-08-08T14:10:05;3.20;;;0.50;;
68938;SDS011;59064;45.294;11.816;2023-08-08T14:12:34;1.50;;;0.40;;
68938;SDS011;59064;45.294;11.816;2023-08-08T14:15:00;2.10;;;0.50;;
68938;SDS011;59064;45.294;11.816;2023-08-08T14:17:25;2.80;;;0.70;;
68938;SDS011;59064;45.294;11.816;2023-08-08T14:19:51;2.10;;;0.50;;
68938;SDS011;59064;45.294;11.816;2023-08-08T14:22:17;2.90;;;0.60;;
68938;SDS011;59064;45.294;11.816;2023-08-08T14:24:42;2.10;;;0.50;;
68938;SDS011;59064;45.294;11.816;2023-08-08T14:27:09;2.30;;;0.40;;
68938;SDS011;59064;45.294;11.816;2023-08-08T14:29:34;1.30;;;0.40;;
68938;SDS011;59064;45.294;11.816;2023-08-08T14:32:00;2.40;;;0.50;;
68938;SDS011;59064;45.294;11.816;2023-08-08T14:34:32;2.60;;;0.50;;
68938;SDS011;59064;45.294;11.816;2023-08-08T14:37:00;2.20;;;0.50;;